Delray Beach, FL (33444)

9:08 PM EST on November 21, 2014 (GMT -0500)
Lake Ida | Change Station
CLOSE
Current Station
Personal Weather Station
Location: Delray Beach, FL
Elevation: 10 ft
Nearby Weather Stations
Active Advisory: Coastal Hazard Statement

Elev 10 ft 26.47 °N, 80.08 °W | Updated 1 second ago

Overcast
Overcast
69.6 °F
Feels Like 69.6 °F
N
0.0
Wind Variable Wind from ENE
Gusts 11.0 mph

Today
High -- | Low -- °F
--% Chance of Precip.
Yesterday
High -- | Low -- °F
Precip. -- in
6:43 AM 5:28 PM
Waning Crescent, 0% visible
Pressure 30.19 in
Visibility 10.0 miles
Clouds Scattered Clouds 2300 ft
Overcast 3100 ft
Dew Point 67 °F
Humidity 90%
Rainfall 0.20 in
Snow Depth Not available.
UV 0 out of 12
Pollen 4.40 out of 12
Air Quality Not available.
Flu Activity Not available.
SPECI KPMP 220200Z AUTO 08014G28KT 10SM SCT023 OVC031 23/18 A3019 RMK AO2 T02330178

More Conditions Fewer Conditions

Pressure 30.19 in
Visibility 10.0 miles
Clouds Scattered Clouds 2300 ft
Overcast 3100 ft
Dew Point 67 °F
Humidity 90%
Rainfall 0.20 in
Snow Depth Not available.
UV 0 out of 12
Pollen 4.40 out of 12
Air Quality Not available.
Flu Activity Not available.
SPECI KPMP 220200Z AUTO 08014G28KT 10SM SCT023 OVC031 23/18 A3019 RMK AO2 T02330178

More Conditions Fewer Conditions

10-Day Weather Forecast

Almanac

Astronomy

Nov. 21, 2014 Rise Set
Actual Time
Civil Twilight
Nautical Twilight
Astronomical Twilight
Moon
Length of Visible Light
Length of Day
Tomorrow will be .
, % of the Moon is Illuminated

Today's Extremes

State Highs State Lows

Community

WunderPhotos

Upload Photos

1,772,756 photos uploaded!

WunderBlogs® & News

Nearby

Air Quality

  Air Quality AQ Index Pollutant
Not available.

Snow Depth

Station Depth Elevation

Earthquake Activity

City Distance Mag. Time & Date
Minimum magnitude displayed is 2.5.

Coastal Water Temperatures

Place Temperature

Nearby Weather Stations